Time;durP1;ratioP1;P1;durP2;ratioP2;P2;SDS_P1;SDS_P2;PMS_P1;PMS_P2;Temp;Humidity;BMP_temperature;BMP_pressure;BME280_temperature;BME280_humidity;BME280_pressure;Samples;Min_cycle;Max_cycle;Signal;HPM_P1;HPM_P2
2021/11/22 00:00:18;;;;;;;;;;;20.50;40.50;;;;;;491602;240;1045;-46
2021/11/22 00:02:19;;;;;;;;;;;20.50;40.50;;;;;;491453;240;1406;-46
2021/11/22 00:04:22;;;;;;;;;;;20.50;40.50;;;;;;491591;240;1113;-47
2021/11/22 00:06:23;;;;;;;;;;;20.50;40.60;;;;;;491442;240;2309;-46
2021/11/22 00:08:24;;;;;;;;;;;20.50;40.50;;;;;;491481;240;1177;-47
2021/11/22 00:10:25;;;;;;;;;;;20.50;40.60;;;;;;491641;240;2188;-47
2021/11/22 00:12:29;;;;;;;;;;;20.50;40.60;;;;;;491529;240;1075;-46
2021/11/22 00:14:28;;;;;;;;;;;20.50;40.50;;;;;;491743;240;2315;-46
2021/11/22 00:16:29;;;;;;;;;;;20.50;40.50;;;;;;491491;240;1297;-46
2021/11/22 00:18:31;;;;;;;;;;;20.50;40.50;;;;;;491987;240;1229;-47
2021/11/22 00:20:32;;;;;;;;;;;20.50;40.50;;;;;;491576;240;1237;-47
2021/11/22 00:22:33;;;;;;;;;;;20.50;40.60;;;;;;491514;240;1165;-47
2021/11/22 00:24:35;;;;;;;;;;;20.50;40.50;;;;;;492053;240;1102;-47
2021/11/22 00:26:36;;;;;;;;;;;20.50;40.50;;;;;;491516;240;1230;-47
2021/11/22 00:28:37;;;;;;;;;;;20.50;40.60;;;;;;491570;240;1602;-46
2021/11/22 00:30:39;;;;;;;;;;;20.50;40.50;;;;;;491967;240;2125;-47
2021/11/22 00:32:41;;;;;;;;;;;20.50;40.50;;;;;;491577;240;1405;-47
2021/11/22 00:34:42;;;;;;;;;;;20.50;40.50;;;;;;491794;240;1402;-46
2021/11/22 00:36:43;;;;;;;;;;;20.50;40.50;;;;;;491435;240;1259;-47
2021/11/22 00:38:45;;;;;;;;;;;20.50;40.50;;;;;;491673;240;1142;-47
2021/11/22 00:40:46;;;;;;;;;;;20.50;40.50;;;;;;491564;240;1365;-46
2021/11/22 00:42:47;;;;;;;;;;;20.50;40.50;;;;;;492018;240;1097;-47
2021/11/22 00:44:49;;;;;;;;;;;20.50;40.50;;;;;;491901;240;1064;-47
2021/11/22 00:46:50;;;;;;;;;;;20.50;40.50;;;;;;491446;240;2326;-47
2021/11/22 00:48:51;;;;;;;;;;;20.50;40.50;;;;;;491603;240;1256;-46
2021/11/22 00:50:53;;;;;;;;;;;20.50;40.50;;;;;;491951;240;2195;-47
2021/11/22 00:52:54;;;;;;;;;;;20.50;40.40;;;;;;491708;240;1877;-47
2021/11/22 00:54:55;;;;;;;;;;;20.50;40.50;;;;;;491518;240;1101;-47
2021/11/22 00:56:57;;;;;;;;;;;20.50;40.40;;;;;;491567;240;1210;-47
2021/11/22 00:58:58;;;;;;;;;;;20.50;40.40;;;;;;491636;240;1171;-47
2021/11/22 01:00:59;;;;;;;;;;;20.50;40.40;;;;;;491628;240;1027;-47
2021/11/22 01:03:01;;;;;;;;;;;20.50;40.40;;;;;;491583;240;1223;-47
2021/11/22 01:05:02;;;;;;;;;;;20.50;40.60;;;;;;491987;240;1105;-46
2021/11/22 01:07:03;;;;;;;;;;;20.50;40.50;;;;;;491771;240;1026;-47
2021/11/22 01:09:05;;;;;;;;;;;20.50;40.60;;;;;;492011;240;1044;-47
2021/11/22 01:11:06;;;;;;;;;;;20.50;40.60;;;;;;491575;240;2203;-47
2021/11/22 01:13:08;;;;;;;;;;;20.50;40.50;;;;;;491840;240;1146;-47
2021/11/22 01:15:09;;;;;;;;;;;20.40;40.50;;;;;;492006;240;1046;-47
2021/11/22 01:17:10;;;;;;;;;;;20.50;40.60;;;;;;491464;240;1215;-47
2021/11/22 01:19:12;;;;;;;;;;;20.50;40.60;;;;;;491606;240;1243;-46
2021/11/22 01:21:13;;;;;;;;;;;20.40;40.50;;;;;;491526;240;1066;-47
2021/11/22 01:23:14;;;;;;;;;;;20.40;40.60;;;;;;491544;240;1198;-47
2021/11/22 01:25:16;;;;;;;;;;;20.50;40.60;;;;;;491571;240;1098;-46
2021/11/22 01:27:17;;;;;;;;;;;20.50;40.60;;;;;;491417;240;1186;-47
2021/11/22 01:29:18;;;;;;;;;;;20.50;40.40;;;;;;491929;240;1212;-47
2021/11/22 01:31:20;;;;;;;;;;;20.50;40.50;;;;;;491949;240;2124;-47
2021/11/22 01:33:21;;;;;;;;;;;20.50;40.40;;;;;;491559;240;1292;-46
2021/11/22 01:35:22;;;;;;;;;;;20.50;40.50;;;;;;491600;240;956;-46
2021/11/22 01:37:24;;;;;;;;;;;20.50;40.50;;;;;;491988;240;1191;-46
2021/11/22 01:39:25;;;;;;;;;;;20.40;40.50;;;;;;491909;240;2263;-47
2021/11/22 01:41:26;;;;;;;;;;;20.40;40.50;;;;;;491621;240;1089;-47
2021/11/22 01:43:28;;;;;;;;;;;20.40;40.50;;;;;;491875;240;1062;-46
2021/11/22 01:45:31;;;;;;;;;;;20.40;40.60;;;;;;491524;240;1045;-47
2021/11/22 01:47:30;;;;;;;;;;;20.40;40.60;;;;;;491655;240;2276;-47
2021/11/22 01:49:32;;;;;;;;;;;20.40;40.60;;;;;;491902;240;1078;-46
2021/11/22 01:51:33;;;;;;;;;;;20.40;40.60;;;;;;491706;240;2117;-46
2021/11/22 01:53:34;;;;;;;;;;;20.50;40.60;;;;;;491540;240;1022;-47
2021/11/22 01:55:36;;;;;;;;;;;20.50;40.50;;;;;;491975;240;1329;-46
2021/11/22 01:57:37;;;;;;;;;;;20.50;40.50;;;;;;491944;240;1166;-47
2021/11/22 01:59:39;;;;;;;;;;;20.40;40.50;;;;;;491756;240;1080;-47
2021/11/22 02:01:40;;;;;;;;;;;20.40;40.50;;;;;;491521;240;1448;-47
2021/11/22 02:03:41;;;;;;;;;;;20.50;40.60;;;;;;491759;240;1186;-47
2021/11/22 02:05:43;;;;;;;;;;;20.40;40.60;;;;;;491645;240;1143;-47
2021/11/22 02:07:44;;;;;;;;;;;20.40;40.60;;;;;;491872;240;1727;-46
2021/11/22 02:09:45;;;;;;;;;;;20.40;40.50;;;;;;491736;240;2137;-47
2021/11/22 02:11:47;;;;;;;;;;;20.50;40.60;;;;;;491679;240;1701;-47
2021/11/22 02:13:48;;;;;;;;;;;20.50;40.60;;;;;;491514;240;1292;-47
2021/11/22 02:15:49;;;;;;;;;;;20.40;40.50;;;;;;491512;240;1369;-47
2021/11/22 02:17:51;;;;;;;;;;;20.40;40.50;;;;;;491904;240;1125;-47
2021/11/22 02:19:52;;;;;;;;;;;20.40;40.50;;;;;;491568;240;1067;-47
2021/11/22 02:21:54;;;;;;;;;;;20.50;40.60;;;;;;491962;240;1218;-47
2021/11/22 02:23:55;;;;;;;;;;;20.40;40.60;;;;;;492040;240;1208;-47
2021/11/22 02:25:56;;;;;;;;;;;20.40;40.60;;;;;;492012;240;1139;-46
2021/11/22 02:27:57;;;;;;;;;;;20.40;40.60;;;;;;491953;240;1274;-46
2021/11/22 02:29:59;;;;;;;;;;;20.40;40.60;;;;;;491574;240;2183;-46
2021/11/22 02:32:00;;;;;;;;;;;20.40;40.60;;;;;;491720;240;1381;-47
2021/11/22 02:34:02;;;;;;;;;;;20.40;40.50;;;;;;491747;240;1109;-47
2021/11/22 02:36:03;;;;;;;;;;;20.50;40.60;;;;;;491879;240;1135;-47
2021/11/22 02:38:04;;;;;;;;;;;20.40;40.50;;;;;;491579;240;1209;-47
2021/11/22 02:40:06;;;;;;;;;;;20.40;40.60;;;;;;491630;240;976;-47
2021/11/22 02:42:07;;;;;;;;;;;20.40;40.60;;;;;;491516;240;1634;-46
2021/11/22 02:44:08;;;;;;;;;;;20.40;40.50;;;;;;492017;240;1040;-47
2021/11/22 02:46:09;;;;;;;;;;;20.50;40.50;;;;;;491967;240;1200;-47
2021/11/22 02:48:11;;;;;;;;;;;20.70;40.20;;;;;;491548;240;1129;-47
2021/11/22 02:50:12;;;;;;;;;;;20.90;39.80;;;;;;491816;240;2129;-47
2021/11/22 02:52:14;;;;;;;;;;;21.00;39.50;;;;;;491800;240;1300;-47
2021/11/22 02:54:15;;;;;;;;;;;21.10;39.30;;;;;;491762;240;1037;-47
2021/11/22 02:56:16;;;;;;;;;;;21.20;39.20;;;;;;491665;240;1352;-47
2021/11/22 02:58:18;;;;;;;;;;;21.20;39.00;;;;;;491689;240;1229;-47
2021/11/22 03:00:19;;;;;;;;;;;21.30;38.90;;;;;;491848;240;1025;-47
2021/11/22 03:02:20;;;;;;;;;;;21.30;38.80;;;;;;491688;240;1168;-47
2021/11/22 03:04:21;;;;;;;;;;;21.40;38.80;;;;;;491799;240;1198;-47
2021/11/22 03:06:23;;;;;;;;;;;21.40;38.70;;;;;;491670;240;1182;-47
2021/11/22 03:08:24;;;;;;;;;;;21.40;38.60;;;;;;491939;240;1034;-47
2021/11/22 03:10:28;;;;;;;;;;;21.50;38.60;;;;;;491506;240;2172;-47
2021/11/22 03:12:27;;;;;;;;;;;21.50;38.60;;;;;;491519;240;2202;-47
2021/11/22 03:14:29;;;;;;;;;;;21.50;38.50;;;;;;492064;240;1009;-47
2021/11/22 03:16:31;;;;;;;;;;;21.60;38.50;;;;;;491580;240;1312;-47
2021/11/22 03:18:31;;;;;;;;;;;21.60;38.50;;;;;;492037;240;1655;-47
2021/11/22 03:20:33;;;;;;;;;;;21.60;38.40;;;;;;491575;240;1199;-47
2021/11/22 03:22:34;;;;;;;;;;;21.60;38.30;;;;;;491948;240;1164;-47
2021/11/22 03:24:35;;;;;;;;;;;21.70;38.30;;;;;;491591;240;1007;-47
2021/11/22 03:26:37;;;;;;;;;;;21.70;38.20;;;;;;491726;240;1165;-47
2021/11/22 03:28:38;;;;;;;;;;;21.70;38.20;;;;;;492070;240;1229;-47
2021/11/22 03:30:39;;;;;;;;;;;21.70;38.20;;;;;;491871;240;2144;-47
2021/11/22 03:32:41;;;;;;;;;;;21.70;38.10;;;;;;491812;240;1189;-47
2021/11/22 03:34:42;;;;;;;;;;;21.70;38.10;;;;;;491792;240;1375;-47
2021/11/22 03:36:43;;;;;;;;;;;21.80;38.10;;;;;;491983;240;1227;-47
2021/11/22 03:38:45;;;;;;;;;;;21.80;38.10;;;;;;491590;240;1239;-47
2021/11/22 03:40:47;;;;;;;;;;;21.80;38.00;;;;;;491563;240;1145;-47
2021/11/22 03:42:59;;;;;;;;;;;21.80;38.00;;;;;;491978;240;2490;-47
2021/11/22 03:44:54;;;;;;;;;;;21.80;38.00;;;;;;491973;240;1566;-47
2021/11/22 03:46:55;;;;;;;;;;;21.90;38.00;;;;;;491564;240;1257;-47
2021/11/22 03:48:57;;;;;;;;;;;21.90;38.00;;;;;;491668;240;1107;-47
2021/11/22 03:50:58;;;;;;;;;;;21.80;37.90;;;;;;491863;240;2836;-47
2021/11/22 03:52:59;;;;;;;;;;;21.90;38.00;;;;;;491919;240;1156;-47
2021/11/22 03:55:01;;;;;;;;;;;21.90;38.00;;;;;;491636;240;1019;-47
2021/11/22 03:57:02;;;;;;;;;;;21.90;38.00;;;;;;491492;240;1048;-47
2021/11/22 03:59:03;;;;;;;;;;;21.90;37.90;;;;;;491649;240;1126;-47
2021/11/22 04:01:05;;;;;;;;;;;21.90;37.90;;;;;;491963;240;1205;-47
2021/11/22 04:03:06;;;;;;;;;;;22.00;38.00;;;;;;491817;240;1167;-47
2021/11/22 04:05:07;;;;;;;;;;;22.00;37.90;;;;;;491640;240;1302;-47
2021/11/22 04:07:09;;;;;;;;;;;22.00;37.90;;;;;;491367;240;1323;-47
2021/11/22 04:09:10;;;;;;;;;;;22.00;37.90;;;;;;490488;241;1042;-47
2021/11/22 04:11:11;;;;;;;;;;;22.00;37.90;;;;;;491925;240;2219;-47
2021/11/22 04:13:13;;;;;;;;;;;22.00;37.90;;;;;;492043;240;1145;-47
2021/11/22 04:15:14;;;;;;;;;;;22.00;37.90;;;;;;491574;240;1068;-47
2021/11/22 04:17:15;;;;;;;;;;;22.00;37.90;;;;;;491935;240;1214;-47
2021/11/22 04:19:17;;;;;;;;;;;22.00;37.90;;;;;;491627;240;972;-47
2021/11/22 04:21:18;;;;;;;;;;;22.00;37.80;;;;;;491882;240;1441;-47
2021/11/22 04:23:20;;;;;;;;;;;22.10;37.80;;;;;;491534;240;1102;-47
2021/11/22 04:25:21;;;;;;;;;;;22.00;37.80;;;;;;492009;240;1055;-47
2021/11/22 04:27:22;;;;;;;;;;;22.10;37.80;;;;;;491580;240;1019;-47
2021/11/22 04:29:24;;;;;;;;;;;22.00;37.70;;;;;;491937;240;1089;-46
2021/11/22 04:31:25;;;;;;;;;;;22.10;37.80;;;;;;491565;240;2118;-47
2021/11/22 04:33:26;;;;;;;;;;;22.10;37.80;;;;;;491524;240;1086;-47
2021/11/22 04:35:28;;;;;;;;;;;22.10;37.80;;;;;;491490;241;1163;-47
2021/11/22 04:37:29;;;;;;;;;;;22.10;37.80;;;;;;491733;240;1226;-47
2021/11/22 04:39:30;;;;;;;;;;;22.10;37.70;;;;;;492013;240;1232;-47
2021/11/22 04:41:32;;;;;;;;;;;22.10;37.70;;;;;;491657;241;1325;-47
2021/11/22 04:43:33;;;;;;;;;;;22.10;37.70;;;;;;492029;240;1113;-47
2021/11/22 04:45:34;;;;;;;;;;;22.10;37.70;;;;;;491472;240;1339;-47
2021/11/22 04:47:36;;;;;;;;;;;22.10;37.60;;;;;;491466;241;1219;-47
2021/11/22 04:49:38;;;;;;;;;;;22.10;37.60;;;;;;491770;240;1006;-47
2021/11/22 04:51:38;;;;;;;;;;;22.20;37.70;;;;;;491415;240;2191;-47
2021/11/22 04:53:40;;;;;;;;;;;22.20;37.70;;;;;;491494;241;1024;-47
2021/11/22 04:55:41;;;;;;;;;;;22.20;37.70;;;;;;491583;241;1188;-47
2021/11/22 04:57:42;;;;;;;;;;;22.20;37.70;;;;;;491595;240;1217;-47
2021/11/22 04:59:44;;;;;;;;;;;22.20;37.70;;;;;;491782;240;1027;-47
2021/11/22 05:01:45;;;;;;;;;;;22.20;37.60;;;;;;491528;240;1309;-47
2021/11/22 05:03:48;;;;;;;;;;;22.20;37.60;;;;;;491530;240;1228;-47
2021/11/22 05:05:48;;;;;;;;;;;22.20;37.60;;;;;;491559;241;2038;-47
2021/11/22 05:07:49;;;;;;;;;;;22.20;37.60;;;;;;491471;240;1231;-47
2021/11/22 05:09:50;;;;;;;;;;;22.20;37.60;;;;;;491501;241;1065;-47
2021/11/22 05:11:52;;;;;;;;;;;22.20;37.60;;;;;;491435;240;2184;-47
2021/11/22 05:13:53;;;;;;;;;;;22.30;37.60;;;;;;491514;240;1053;-47
2021/11/22 05:15:55;;;;;;;;;;;22.20;37.60;;;;;;491545;241;1374;-47
2021/11/22 05:17:56;;;;;;;;;;;22.20;37.50;;;;;;491538;240;1054;-47
2021/11/22 05:19:57;;;;;;;;;;;22.20;37.50;;;;;;491995;240;1075;-47
2021/11/22 05:21:59;;;;;;;;;;;22.20;37.60;;;;;;491428;240;1171;-47
2021/11/22 05:24:00;;;;;;;;;;;22.30;37.60;;;;;;491648;240;1035;-47
2021/11/22 05:26:01;;;;;;;;;;;22.20;37.50;;;;;;491973;241;1439;-47
2021/11/22 05:28:03;;;;;;;;;;;22.30;37.50;;;;;;491515;240;1025;-47
2021/11/22 05:30:04;;;;;;;;;;;22.30;37.50;;;;;;491891;240;1078;-47
2021/11/22 05:32:05;;;;;;;;;;;22.30;37.50;;;;;;491577;240;2192;-47
2021/11/22 05:34:07;;;;;;;;;;;22.30;37.50;;;;;;491510;240;1020;-47
2021/11/22 05:36:08;;;;;;;;;;;22.30;37.50;;;;;;491413;241;1275;-47
2021/11/22 05:38:09;;;;;;;;;;;22.30;37.50;;;;;;491713;241;1004;-47
2021/11/22 05:40:11;;;;;;;;;;;22.30;37.50;;;;;;491290;240;1050;-47
2021/11/22 05:42:12;;;;;;;;;;;22.30;37.50;;;;;;491375;240;1155;-47
2021/11/22 05:44:13;;;;;;;;;;;22.30;37.50;;;;;;491470;240;1092;-47
2021/11/22 05:46:15;;;;;;;;;;;22.30;37.50;;;;;;491597;240;1540;-47
2021/11/22 05:48:17;;;;;;;;;;;22.40;37.50;;;;;;490995;240;1342;-47
2021/11/22 05:50:18;;;;;;;;;;;22.40;37.50;;;;;;491515;240;2308;-47
2021/11/22 05:52:19;;;;;;;;;;;22.40;37.40;;;;;;491257;240;2420;-47
2021/11/22 05:54:22;;;;;;;;;;;22.40;37.40;;;;;;491321;240;1050;-47
2021/11/22 05:56:21;;;;;;;;;;;22.40;37.40;;;;;;491685;240;2373;-47
2021/11/22 05:58:23;;;;;;;;;;;22.40;37.40;;;;;;491409;240;1085;-47
2021/11/22 06:00:24;;;;;;;;;;;22.40;37.40;;;;;;491399;240;1366;-47
2021/11/22 06:02:25;;;;;;;;;;;22.40;37.40;;;;;;491385;240;1075;-47
2021/11/22 06:04:27;;;;;;;;;;;22.40;37.40;;;;;;491319;240;991;-47
2021/11/22 06:06:28;;;;;;;;;;;22.40;37.40;;;;;;491347;240;1339;-47
2021/11/22 06:08:29;;;;;;;;;;;22.40;37.40;;;;;;491276;240;1080;-47
2021/11/22 06:10:31;;;;;;;;;;;22.40;37.40;;;;;;491253;240;1086;-47
2021/11/22 06:12:32;;;;;;;;;;;22.40;37.40;;;;;;491262;240;2204;-47
2021/11/22 06:14:33;;;;;;;;;;;22.40;37.40;;;;;;491302;240;1077;-46
2021/11/22 06:16:35;;;;;;;;;;;22.50;37.40;;;;;;491567;240;1196;-47
2021/11/22 06:18:36;;;;;;;;;;;22.50;37.40;;;;;;491392;240;1053;-47
2021/11/22 06:20:37;;;;;;;;;;;22.50;37.40;;;;;;491218;240;1433;-47
2021/11/22 06:22:39;;;;;;;;;;;22.50;37.40;;;;;;491175;240;1196;-47
2021/11/22 06:24:40;;;;;;;;;;;22.50;37.40;;;;;;491480;240;1154;-47
2021/11/22 06:26:41;;;;;;;;;;;22.50;37.40;;;;;;491278;240;1359;-47
2021/11/22 06:28:43;;;;;;;;;;;22.50;37.40;;;;;;491056;240;1827;-47
2021/11/22 06:30:44;;;;;;;;;;;22.50;37.40;;;;;;491244;240;1106;-47
2021/11/22 06:32:45;;;;;;;;;;;22.50;37.40;;;;;;491023;240;2196;-47
2021/11/22 06:34:47;;;;;;;;;;;22.50;37.40;;;;;;491093;240;1063;-47
2021/11/22 06:36:48;;;;;;;;;;;22.50;37.40;;;;;;491126;240;1175;-47
2021/11/22 06:38:49;;;;;;;;;;;22.50;37.30;;;;;;491238;240;1145;-47
2021/11/22 06:40:51;;;;;;;;;;;22.50;37.30;;;;;;491196;240;1354;-47
2021/11/22 06:42:52;;;;;;;;;;;22.50;37.30;;;;;;491172;240;1397;-47
2021/11/22 06:44:53;;;;;;;;;;;22.50;37.30;;;;;;491082;240;1191;-47
2021/11/22 06:46:55;;;;;;;;;;;22.50;37.30;;;;;;491043;240;1318;-47
2021/11/22 06:48:56;;;;;;;;;;;22.50;37.30;;;;;;491386;240;1070;-47
2021/11/22 06:50:58;;;;;;;;;;;22.50;37.40;;;;;;491044;240;1269;-47
2021/11/22 06:52:59;;;;;;;;;;;22.50;37.40;;;;;;491160;240;2180;-47
2021/11/22 06:55:01;;;;;;;;;;;22.50;37.40;;;;;;491089;240;1159;-47
2021/11/22 06:57:02;;;;;;;;;;;22.50;37.40;;;;;;490974;240;1521;-47
2021/11/22 06:59:03;;;;;;;;;;;22.50;37.40;;;;;;491077;240;1097;-47
2021/11/22 07:01:04;;;;;;;;;;;22.50;37.40;;;;;;491035;240;1194;-47
2021/11/22 07:03:06;;;;;;;;;;;22.50;37.40;;;;;;491056;240;1193;-47
2021/11/22 07:05:07;;;;;;;;;;;22.50;37.40;;;;;;491108;240;1132;-47
2021/11/22 07:07:08;;;;;;;;;;;22.50;37.40;;;;;;490857;240;1589;-47
2021/11/22 07:09:10;;;;;;;;;;;22.50;37.30;;;;;;490997;240;1082;-47
2021/11/22 07:11:11;;;;;;;;;;;22.50;37.40;;;;;;491069;240;1184;-47
2021/11/22 07:13:12;;;;;;;;;;;22.50;37.30;;;;;;490989;240;2216;-47
2021/11/22 07:15:18;;;;;;;;;;;22.60;37.30;;;;;;490891;240;1132;-47
2021/11/22 07:17:16;;;;;;;;;;;22.60;37.30;;;;;;490927;240;2194;-47
2021/11/22 07:19:17;;;;;;;;;;;22.60;37.20;;;;;;491024;240;1208;-47
2021/11/22 07:21:19;;;;;;;;;;;22.60;37.20;;;;;;490894;240;1086;-47
2021/11/22 07:23:22;;;;;;;;;;;22.60;37.20;;;;;;490897;240;1131;-47
2021/11/22 07:25:23;;;;;;;;;;;22.60;37.20;;;;;;490938;240;2130;-47
2021/11/22 07:27:26;;;;;;;;;;;22.60;37.20;;;;;;490862;240;1163;-47
2021/11/22 07:29:26;;;;;;;;;;;22.60;37.10;;;;;;491048;240;2251;-47
2021/11/22 07:31:28;;;;;;;;;;;22.60;37.10;;;;;;490890;240;1294;-47
2021/11/22 07:33:29;;;;;;;;;;;22.60;37.10;;;;;;490788;240;2187;-47
2021/11/22 07:35:30;;;;;;;;;;;22.60;37.10;;;;;;490823;240;1729;-47
2021/11/22 07:37:32;;;;;;;;;;;22.60;37.10;;;;;;490707;240;1238;-47
2021/11/22 07:39:33;;;;;;;;;;;22.60;37.00;;;;;;490772;240;1077;-47
2021/11/22 07:41:34;;;;;;;;;;;22.60;37.10;;;;;;490750;240;1341;-47
2021/11/22 07:43:36;;;;;;;;;;;22.60;37.10;;;;;;490942;240;1150;-47
2021/11/22 07:45:37;;;;;;;;;;;22.60;37.00;;;;;;490886;240;1088;-47
2021/11/22 07:47:39;;;;;;;;;;;22.60;37.00;;;;;;491067;240;1257;-47
2021/11/22 07:49:40;;;;;;;;;;;22.60;37.00;;;;;;490995;240;1102;-47
2021/11/22 07:51:41;;;;;;;;;;;22.60;37.00;;;;;;490817;240;1196;-47
2021/11/22 07:53:42;;;;;;;;;;;22.60;37.00;;;;;;490896;240;2196;-47
2021/11/22 07:55:46;;;;;;;;;;;22.60;37.00;;;;;;490885;240;1292;-47
2021/11/22 07:57:46;;;;;;;;;;;22.60;36.90;;;;;;490921;240;2296;-47
2021/11/22 07:59:47;;;;;;;;;;;22.60;37.00;;;;;;490935;240;1218;-47
2021/11/22 08:01:48;;;;;;;;;;;22.60;36.90;;;;;;490845;240;1281;-47
2021/11/22 08:03:50;;;;;;;;;;;22.60;36.90;;;;;;491007;240;1106;-47
2021/11/22 08:05:55;;;;;;;;;;;22.60;37.00;;;;;;490869;240;1221;-47
2021/11/22 08:07:55;;;;;;;;;;;22.60;36.90;;;;;;490936;240;1354;-47
2021/11/22 08:09:57;;;;;;;;;;;22.60;36.90;;;;;;491170;240;2131;-47
2021/11/22 08:12:15;;;;;;;;;;;22.60;36.90;;;;;;490755;240;2358;-47
2021/11/22 08:14:15;;;;;;;;;;;22.60;36.90;;;;;;490650;240;2154;-47
2021/11/22 08:16:16;;;;;;;;;;;22.60;36.90;;;;;;490719;240;1307;-47
2021/11/22 08:18:18;;;;;;;;;;;22.60;36.80;;;;;;490830;240;1196;-47
2021/11/22 08:20:19;;;;;;;;;;;22.60;36.80;;;;;;490786;240;1093;-47
2021/11/22 08:22:21;;;;;;;;;;;22.60;36.80;;;;;;490723;240;1150;-47
2021/11/22 08:24:26;;;;;;;;;;;22.60;36.80;;;;;;490905;240;2045;-47
2021/11/22 08:26:24;;;;;;;;;;;22.60;36.80;;;;;;490746;240;1367;-47
2021/11/22 08:28:25;;;;;;;;;;;22.60;36.80;;;;;;490707;240;1223;-47
2021/11/22 08:30:27;;;;;;;;;;;22.70;36.70;;;;;;490567;240;1263;-47
2021/11/22 08:32:28;;;;;;;;;;;22.60;36.60;;;;;;490716;240;2149;-47
2021/11/22 08:34:29;;;;;;;;;;;22.60;36.70;;;;;;490565;240;1245;-47
2021/11/22 08:36:30;;;;;;;;;;;22.60;36.70;;;;;;490621;240;1363;-47
2021/11/22 08:38:32;;;;;;;;;;;22.60;36.70;;;;;;490695;240;1291;-47
2021/11/22 08:40:34;;;;;;;;;;;22.60;36.60;;;;;;490755;240;1058;-46
2021/11/22 08:42:35;;;;;;;;;;;22.70;36.70;;;;;;490627;240;2124;-47
2021/11/22 08:44:36;;;;;;;;;;;22.70;36.70;;;;;;490712;240;1158;-47
2021/11/22 08:46:38;;;;;;;;;;;22.70;36.60;;;;;;490571;240;1205;-47
2021/11/22 08:48:39;;;;;;;;;;;22.70;36.70;;;;;;490780;240;1234;-47
2021/11/22 08:50:40;;;;;;;;;;;22.70;36.70;;;;;;490809;240;1080;-47
2021/11/22 08:52:41;;;;;;;;;;;22.70;36.70;;;;;;490699;240;2199;-47
2021/11/22 08:54:43;;;;;;;;;;;22.70;36.70;;;;;;490706;240;1208;-47
2021/11/22 08:56:44;;;;;;;;;;;22.70;36.70;;;;;;490779;240;1354;-47
2021/11/22 08:58:46;;;;;;;;;;;22.70;36.60;;;;;;490603;240;1226;-47
2021/11/22 09:00:50;;;;;;;;;;;22.60;36.60;;;;;;491074;240;1323;-47
2021/11/22 09:02:49;;;;;;;;;;;22.60;36.60;;;;;;490655;240;2296;-47
2021/11/22 09:04:51;;;;;;;;;;;22.60;36.60;;;;;;490783;240;1092;-46
2021/11/22 09:06:52;;;;;;;;;;;22.70;36.60;;;;;;490646;240;1380;-47
2021/11/22 09:08:53;;;;;;;;;;;22.70;36.60;;;;;;490718;240;1195;-47
2021/11/22 09:10:55;;;;;;;;;;;22.70;36.50;;;;;;490682;240;1222;-47
2021/11/22 09:12:56;;;;;;;;;;;22.70;36.50;;;;;;490767;240;2196;-47
2021/11/22 09:14:58;;;;;;;;;;;22.60;36.50;;;;;;490864;240;1130;-47
2021/11/22 09:16:59;;;;;;;;;;;22.60;36.50;;;;;;490776;240;2032;-47
2021/11/22 09:19:00;;;;;;;;;;;22.70;36.60;;;;;;490586;240;1057;-47
2021/11/22 09:21:01;;;;;;;;;;;22.70;36.50;;;;;;490619;240;1242;-47
2021/11/22 09:23:04;;;;;;;;;;;22.70;36.50;;;;;;490665;240;1145;-47
2021/11/22 09:25:04;;;;;;;;;;;22.70;36.50;;;;;;490717;240;1838;-47
2021/11/22 09:27:05;;;;;;;;;;;22.70;36.40;;;;;;490619;240;1318;-47
2021/11/22 09:29:07;;;;;;;;;;;22.70;36.40;;;;;;490770;240;1217;-47
2021/11/22 09:31:08;;;;;;;;;;;22.70;36.40;;;;;;490653;240;1265;-47
2021/11/22 09:33:11;;;;;;;;;;;22.70;36.40;;;;;;490843;240;2198;-47
2021/11/22 09:35:11;;;;;;;;;;;22.70;36.40;;;;;;490885;240;2286;-47
2021/11/22 09:37:13;;;;;;;;;;;22.70;36.40;;;;;;490785;240;1195;-47
2021/11/22 09:39:14;;;;;;;;;;;22.70;36.40;;;;;;490816;240;1213;-47
2021/11/22 09:41:15;;;;;;;;;;;22.70;36.40;;;;;;490694;240;1172;-47
2021/11/22 09:43:17;;;;;;;;;;;22.70;36.40;;;;;;490685;240;1163;-47
2021/11/22 09:45:19;;;;;;;;;;;22.70;36.40;;;;;;490535;240;1070;-47
2021/11/22 09:47:19;;;;;;;;;;;22.70;36.40;;;;;;490504;240;1692;-47
2021/11/22 09:49:21;;;;;;;;;;;22.70;36.50;;;;;;490672;240;1282;-47
2021/11/22 09:51:22;;;;;;;;;;;22.70;36.40;;;;;;490607;240;1313;-47
2021/11/22 09:53:23;;;;;;;;;;;22.70;36.30;;;;;;490621;240;2203;-47
2021/11/22 09:55:29;;;;;;;;;;;22.70;36.30;;;;;;490568;240;1112;-47
2021/11/22 09:57:26;;;;;;;;;;;22.70;36.30;;;;;;490777;240;2160;-47
2021/11/22 09:59:27;;;;;;;;;;;22.70;36.30;;;;;;490840;240;1050;-47
2021/11/22 10:01:29;;;;;;;;;;;22.70;36.40;;;;;;490789;240;1292;-47
2021/11/22 10:03:30;;;;;;;;;;;22.70;36.40;;;;;;491579;240;1239;-47
2021/11/22 10:05:33;;;;;;;;;;;22.70;36.30;;;;;;491406;240;1684;-47
2021/11/22 10:07:33;;;;;;;;;;;22.70;36.40;;;;;;490565;240;2265;-47
2021/11/22 10:09:34;;;;;;;;;;;22.70;36.30;;;;;;490562;240;1220;-47
2021/11/22 10:11:35;;;;;;;;;;;22.70;36.30;;;;;;490634;240;1211;-47
2021/11/22 10:13:37;;;;;;;;;;;22.70;36.30;;;;;;490592;240;2176;-47
2021/11/22 10:15:38;;;;;;;;;;;22.70;36.40;;;;;;490757;240;1126;-47
2021/11/22 10:17:40;;;;;;;;;;;22.70;36.30;;;;;;490625;240;1155;-47
2021/11/22 10:19:41;;;;;;;;;;;22.70;36.30;;;;;;490648;240;2246;-47
2021/11/22 10:21:43;;;;;;;;;;;22.80;36.30;;;;;;490501;240;1328;-47
2021/11/22 10:23:43;;;;;;;;;;;22.80;36.30;;;;;;490465;240;1481;-47
2021/11/22 10:25:45;;;;;;;;;;;22.70;36.40;;;;;;490484;240;1430;-47
2021/11/22 10:27:46;;;;;;;;;;;22.70;36.50;;;;;;490615;240;1349;-47
2021/11/22 10:29:47;;;;;;;;;;;22.70;36.60;;;;;;490690;240;1086;-47
2021/11/22 10:31:49;;;;;;;;;;;22.60;36.70;;;;;;490577;240;1332;-47
2021/11/22 10:33:50;;;;;;;;;;;22.50;36.90;;;;;;490818;240;2109;-47
2021/11/22 10:35:53;;;;;;;;;;;22.50;37.00;;;;;;490725;240;1107;-46
2021/11/22 10:37:54;;;;;;;;;;;22.40;37.10;;;;;;490899;240;2186;-47
2021/11/22 10:39:55;;;;;;;;;;;22.40;37.20;;;;;;490894;240;1199;-47
2021/11/22 10:41:56;;;;;;;;;;;22.30;37.20;;;;;;490750;240;1306;-47
2021/11/22 10:43:58;;;;;;;;;;;22.30;37.30;;;;;;490775;240;1207;-47
2021/11/22 10:45:59;;;;;;;;;;;22.30;37.40;;;;;;490867;240;1102;-47
2021/11/22 10:48:06;;;;;;;;;;;22.20;37.50;;;;;;490705;240;1067;-46
2021/11/22 10:50:04;;;;;;;;;;;22.20;37.50;;;;;;490805;240;2461;-47
2021/11/22 10:52:03;;;;;;;;;;;22.20;37.60;;;;;;490866;240;2145;-47
2021/11/22 10:54:04;;;;;;;;;;;22.10;37.60;;;;;;491251;240;2216;-47
2021/11/22 10:56:06;;;;;;;;;;;22.10;37.70;;;;;;491001;240;1217;-47
2021/11/22 10:58:07;;;;;;;;;;;22.10;37.70;;;;;;491482;240;1040;-47
2021/11/22 11:00:08;;;;;;;;;;;22.00;37.80;;;;;;490646;240;1149;-47
2021/11/22 11:02:10;;;;;;;;;;;22.00;37.90;;;;;;490424;240;1194;-46
2021/11/22 11:04:11;;;;;;;;;;;22.00;38.10;;;;;;490464;241;1145;-47
2021/11/22 11:06:12;;;;;;;;;;;22.00;38.10;;;;;;490674;241;1346;-47
2021/11/22 11:08:14;;;;;;;;;;;22.00;38.10;;;;;;491515;241;1040;-46
2021/11/22 11:10:15;;;;;;;;;;;21.90;38.10;;;;;;490868;241;1128;-47
2021/11/22 11:12:16;;;;;;;;;;;21.90;38.20;;;;;;490573;241;1181;-47
2021/11/22 11:14:18;;;;;;;;;;;21.80;38.30;;;;;;490630;240;2184;-47
2021/11/22 11:16:19;;;;;;;;;;;21.80;38.30;;;;;;490492;241;1351;-47
2021/11/22 11:18:20;;;;;;;;;;;21.80;38.50;;;;;;490722;240;1146;-47
2021/11/22 11:20:22;;;;;;;;;;;21.70;38.50;;;;;;490817;240;1265;-47
2021/11/22 11:22:23;;;;;;;;;;;21.70;38.60;;;;;;490967;240;1657;-47
2021/11/22 11:24:24;;;;;;;;;;;21.70;38.80;;;;;;491466;240;1154;-47
2021/11/22 11:26:26;;;;;;;;;;;21.60;38.70;;;;;;491011;240;1254;-47
2021/11/22 11:28:27;;;;;;;;;;;21.60;38.80;;;;;;491038;240;1064;-47
2021/11/22 11:30:28;;;;;;;;;;;21.50;38.80;;;;;;490725;240;1223;-47
2021/11/22 11:32:31;;;;;;;;;;;21.50;38.90;;;;;;490926;240;1211;-47
2021/11/22 11:34:31;;;;;;;;;;;21.50;39.00;;;;;;491506;240;2175;-47
2021/11/22 11:36:32;;;;;;;;;;;21.50;39.00;;;;;;490854;240;1144;-47
2021/11/22 11:38:34;;;;;;;;;;;21.40;39.00;;;;;;490842;240;1209;-47
2021/11/22 11:40:35;;;;;;;;;;;21.40;39.10;;;;;;490786;240;1792;-47
2021/11/22 11:42:36;;;;;;;;;;;21.40;39.20;;;;;;490837;240;1230;-47
2021/11/22 11:44:38;;;;;;;;;;;21.40;39.20;;;;;;490600;240;1387;-47
2021/11/22 11:46:39;;;;;;;;;;;21.40;39.30;;;;;;490734;240;1258;-47
2021/11/22 11:48:41;;;;;;;;;;;21.40;39.30;;;;;;490272;241;1253;-47
2021/11/22 11:50:44;;;;;;;;;;;21.40;39.20;;;;;;491032;240;1212;-47
2021/11/22 11:52:45;;;;;;;;;;;21.30;39.30;;;;;;490763;240;1202;-47
2021/11/22 11:54:46;;;;;;;;;;;21.30;39.30;;;;;;490932;240;2180;-47
2021/11/22 11:56:50;;;;;;;;;;;21.30;39.30;;;;;;490967;240;1370;-45